Kauhale Kai — V7MC9 — position and weather

sailwx.info

Track history (hours):
 
Tides and Currents Weather Stations Pressure Air Temp Water Temp Dewpoint Dewpoint Depression Visibility Wind Speed Wind Dir Waves Ship Positions

Kauhale Kai

Last reported at 2015-May-08 22:10 UTC. Time now 2015-Jul-03 12:25 UTC.
Position N 26°14' W 079°40'.
Warning: this ship's position is 55 days out of date.

; draft 2.8 m.

Type: Pleasure craft. MMSI: 538070338.

Date/timePositionNaut miles runAvg speedWind from/ knotsBaromVisibWave heightAir tempDewpointWater temp
2015-May-08 22:10N 26°14' W 079°40'5 8.7
2015-May-08 21:33N 26°12' W 079°46'8 8.4
2015-May-08 20:33N 26°09' W 079°54'8 8.3
2015-May-08 19:33N 26°06' W 080°03'5 4.9
2015-May-08 18:33N 26°07' W 080°08'2 1.9
2015-May-08 17:33N 26°06' W 080°10'0 0.0
2015-May-08 16:33N 26°06' W 080°10'0 0.0
2015-May-08 15:33N 26°06' W 080°10'0 0.0
2015-May-08 14:33N 26°06' W 080°10'0 0.0
2015-May-08 13:33N 26°06' W 080°10'0 0.0
2015-May-08 12:33N 26°06' W 080°10'0 0.0
2015-May-08 11:33N 26°06' W 080°10'0 0.0
2015-May-08 10:33N 26°06' W 080°10'0 0.0
2015-May-08 09:33N 26°06' W 080°10'0 0.0
2015-May-08 08:33N 26°06' W 080°10'0 0.0
2015-May-08 07:33N 26°06' W 080°10'0 0.0
2015-May-08 06:33N 26°06' W 080°10'0 0.0
2015-May-08 05:33N 26°06' W 080°10'0 0.0
2015-May-08 04:33N 26°06' W 080°10'0 0.0
2015-May-08 03:33N 26°06' W 080°10'0 0.0
2015-May-08 02:33N 26°06' W 080°10'0 0.0
2015-May-08 01:33N 26°06' W 080°10'0 0.0
2015-May-08 00:33N 26°06' W 080°10'0 0.0
2015-May-07 23:33N 26°06' W 080°10'0 0.0
2015-May-07 22:33N 26°06' W 080°10'0 0.0
2015-May-07 21:33N 26°06' W 080°10'0 0.0
2015-May-07 20:33N 26°06' W 080°10'0 0.0
2015-May-07 19:33N 26°06' W 080°10'0 0.0
2015-May-07 18:33N 26°06' W 080°10'0 0.0
2015-May-07 17:34N 26°06' W 080°10'0 0.0
2015-May-07 16:33N 26°06' W 080°10'0 0.0
2015-May-07 15:34N 26°06' W 080°10'0 0.0
2015-May-07 14:33N 26°06' W 080°10'0 0.0
2015-May-07 13:34N 26°06' W 080°10'0 0.0
2015-May-07 12:33N 26°06' W 080°10'0 0.0
2015-May-07 11:33N 26°06' W 080°10'0 0.0
2015-May-07 10:33N 26°06' W 080°10'0 0.0
2015-May-07 09:33N 26°06' W 080°10'0 0.0
2015-May-07 08:33N 26°06' W 080°10'0 0.0
2015-May-07 07:33N 26°06' W 080°10'0 0.0
2015-May-07 05:10N 26°06' W 080°10'0 0.0
2015-May-07 04:33N 26°06' W 080°10'0 0.0
2015-May-07 03:33N 26°06' W 080°10'0 0.0
2015-May-07 02:34N 26°06' W 080°10'0 0.0
2015-May-07 01:33N 26°06' W 080°10'0 0.0
2015-May-07 00:33N 26°06' W 080°10'0 0.0
2015-May-06 23:33N 26°06' W 080°10'0 0.0
2015-May-06 22:33N 26°06' W 080°10'0 0.0
2015-May-06 21:33N 26°06' W 080°10'0 0.0
2015-May-06 20:33N 26°06' W 080°10'0 0.0
2015-May-06 19:33N 26°06' W 080°10'0 0.0
2015-May-06 18:33N 26°06' W 080°10'0 0.0
2015-May-06 17:33N 26°06' W 080°10'0 0.0
2015-May-06 16:33N 26°06' W 080°10'0 0.0
2015-May-06 15:33N 26°06' W 080°10'0 0.0
2015-May-06 14:33N 26°06' W 080°10'0 0.0
2015-May-06 13:33N 26°06' W 080°10'0 0.0
2015-May-06 12:33N 26°06' W 080°10'0 0.0
2015-May-06 11:33N 26°06' W 080°10'0 0.0
2015-May-06 10:33N 26°06' W 080°10'0 0.0
2015-May-06 09:33N 26°06' W 080°10'0 0.0
2015-May-06 08:33N 26°06' W 080°10'0 0.0
2015-May-06 07:33N 26°06' W 080°10'0 0.0
2015-May-06 06:33N 26°06' W 080°10'0 0.0
2015-May-06 05:33N 26°06' W 080°10'0 0.0
2015-May-06 04:33N 26°06' W 080°10'0 0.0
2015-May-06 03:33N 26°06' W 080°10'0 0.0
2015-May-06 02:33N 26°06' W 080°10'0 0.0
2015-May-06 01:33N 26°06' W 080°10'0 0.0
2015-May-06 00:33N 26°06' W 080°10'0 0.0
2015-May-05 23:33N 26°06' W 080°10'0 0.0
2015-May-05 22:33N 26°06' W 080°10'0 0.0
2015-May-05 21:33N 26°06' W 080°10'0 0.0
2015-May-05 20:33N 26°06' W 080°10'0 0.0
2015-May-05 19:33N 26°06' W 080°10'0 0.0
2015-May-05 18:33N 26°06' W 080°10'0 0.0
2015-May-05 17:33N 26°06' W 080°10'0 0.0
2015-May-05 16:33N 26°06' W 080°10'0 0.0
2015-May-05 15:33N 26°06' W 080°10'0 0.0
2015-May-05 14:33N 26°06' W 080°10'0 0.0
2015-May-05 13:33N 26°06' W 080°10'0 0.0
2015-May-05 12:33N 26°06' W 080°10'0 0.0
2015-May-05 11:33N 26°06' W 080°10'0 0.0
2015-May-05 10:33N 26°06' W 080°10'0 0.0
2015-May-05 09:33N 26°06' W 080°10'0 0.0
2015-May-05 08:33N 26°06' W 080°10'0 0.0
2015-May-05 07:33N 26°06' W 080°10'0 0.0
2015-May-05 06:33N 26°06' W 080°10'0 0.0
2015-May-05 05:33N 26°06' W 080°10'0 0.0
2015-May-05 04:33N 26°06' W 080°10'0 0.0
2015-May-05 03:33N 26°06' W 080°10'0 0.0
2015-May-05 02:33N 26°06' W 080°10'0 0.0
2015-May-05 01:33N 26°06' W 080°10'0 0.0
2015-May-05 00:33N 26°06' W 080°10'0 0.0
2015-May-04 23:33N 26°06' W 080°10'0 0.0
2015-May-04 22:33N 26°06' W 080°10'0 0.0
2015-May-04 21:33N 26°06' W 080°10'0 0.0
2015-May-04 20:33N 26°06' W 080°10'0 0.0
2015-May-04 19:34N 26°06' W 080°10'0 0.0
2015-May-04 18:34N 26°06' W 080°10'0 0.0
2015-May-04 17:33N 26°06' W 080°10'0 0.0
2015-May-04 16:33N 26°06' W 080°10'0 0.0
2015-May-04 15:33N 26°06' W 080°10'0 0.0
2015-May-04 14:33N 26°06' W 080°10'0 0.0
2015-May-04 13:33N 26°06' W 080°10'0 0.0
2015-May-04 12:33N 26°06' W 080°10'0 0.0
2015-May-04 11:33N 26°06' W 080°10'0 0.0
2015-May-04 10:33N 26°06' W 080°10'0 0.0
2015-May-04 09:33N 26°06' W 080°10'0 0.0
2015-May-04 08:33N 26°06' W 080°10'0 0.0
2015-May-04 07:33N 26°06' W 080°10'0 0.0
2015-May-04 06:33N 26°06' W 080°10'0 0.0
2015-May-04 05:33N 26°06' W 080°10'0 0.0
2015-May-04 04:33N 26°06' W 080°10'0 0.0
2015-May-04 03:33N 26°06' W 080°10'0 0.0
2015-May-04 02:33N 26°06' W 080°10'0 0.0
2015-May-04 01:33N 26°06' W 080°10'0 0.0
2015-May-04 00:33N 26°06' W 080°10'0 0.0
2015-May-03 23:33N 26°06' W 080°10'0 0.0
2015-May-03 22:33N 26°06' W 080°10'0 0.0
2015-May-03 21:33N 26°06' W 080°10'0 0.0
2015-May-03 20:33N 26°06' W 080°10'0 0.0
2015-May-03 19:33N 26°06' W 080°10'0 0.0
2015-May-03 18:33N 26°06' W 080°10'0 0.0
2015-May-03 17:33N 26°06' W 080°10'0 0.0
2015-May-03 16:34N 26°06' W 080°10'0 0.0
2015-May-03 15:33N 26°06' W 080°10'0 0.0
2015-May-03 14:33N 26°06' W 080°10'0 0.0
2015-May-03 13:33N 26°06' W 080°10'0 0.0
2015-May-03 12:33N 26°06' W 080°10'0 0.0
2015-May-03 11:33N 26°06' W 080°10'0 0.0
2015-May-03 10:33N 26°06' W 080°10'0 0.0
2015-May-03 09:33N 26°06' W 080°10'0 0.0
2015-May-03 08:33N 26°06' W 080°10'0 0.0
2015-May-03 07:33N 26°06' W 080°10'0 0.0
2015-May-03 06:33N 26°06' W 080°10'0 0.0
2015-May-03 05:33N 26°06' W 080°10'0 0.0
2015-May-03 04:33N 26°06' W 080°10'0 0.0
2015-May-03 03:33N 26°06' W 080°10'0 0.0
2015-May-03 02:33N 26°06' W 080°10'0 0.0
2015-May-03 01:34N 26°06' W 080°10'0 0.0
2015-May-03 00:32N 26°06' W 080°10'0 0.0
2015-May-02 23:33N 26°06' W 080°10'0 0.0
2015-May-02 22:33N 26°06' W 080°10'0 0.0
2015-May-02 21:33N 26°06' W 080°10'0 0.0
2015-May-02 20:33N 26°06' W 080°10'0 0.0
2015-May-02 19:33N 26°06' W 080°10'0 0.0
2015-May-02 18:33N 26°06' W 080°10'0 0.0
2015-May-02 17:33N 26°06' W 080°10'0 0.0
2015-May-02 16:33N 26°06' W 080°10'0 0.0
2015-May-02 15:33N 26°06' W 080°10'0 0.0
2015-May-02 14:33N 26°06' W 080°10'0 0.0
2015-May-02 13:33N 26°06' W 080°10'0 0.0
2015-May-02 12:33N 26°06' W 080°10'0 0.0
2015-May-02 11:33N 26°06' W 080°10'0 0.0
2015-May-02 10:33N 26°06' W 080°10'0 0.0
2015-May-02 09:33N 26°06' W 080°10'0 0.0
2015-May-02 08:34N 26°06' W 080°10'0 0.0
2015-May-02 07:34N 26°06' W 080°10'0 0.0
2015-May-02 06:33N 26°06' W 080°10'0 0.0
2015-May-02 05:33N 26°06' W 080°10'0 0.0
2015-May-02 04:33N 26°06' W 080°10'0 0.0
2015-May-02 03:33N 26°06' W 080°10'0 0.0
2015-May-02 02:33N 26°06' W 080°10'0 0.0
2015-May-02 01:33N 26°06' W 080°10'0 0.0
2015-May-02 00:33N 26°06' W 080°10'0 0.0
2015-May-01 23:33N 26°06' W 080°10'0 0.0
2015-May-01 22:33N 26°06' W 080°10'0 0.0
2015-May-01 21:33N 26°06' W 080°10'0 0.0
2015-May-01 20:34N 26°06' W 080°10'0 0.0
2015-May-01 19:33N 26°06' W 080°10'0 0.0
2015-May-01 18:33N 26°06' W 080°10'0 0.0
2015-May-01 17:33N 26°06' W 080°10'0 0.0
2015-May-01 16:33N 26°06' W 080°10'0 0.0
2015-May-01 15:33N 26°06' W 080°10'0 0.0
2015-May-01 14:33N 26°06' W 080°10'0 0.0
2015-May-01 13:33N 26°06' W 080°10'0 0.0
2015-May-01 12:33N 26°06' W 080°10'0 0.0
2015-May-01 11:33N 26°06' W 080°10'0 0.0
2015-May-01 10:33N 26°06' W 080°10'0 0.0
2015-May-01 09:33N 26°06' W 080°10'0 0.0
2015-May-01 08:33N 26°06' W 080°10'0 0.0
2015-May-01 07:33N 26°06' W 080°10'0 0.0
2015-May-01 06:33N 26°06' W 080°10'0 0.0
2015-May-01 05:33N 26°06' W 080°10'0 0.0
2015-May-01 04:33N 26°06' W 080°10'0 0.0
2015-May-01 03:33N 26°06' W 080°10'0 0.0
2015-May-01 02:33N 26°06' W 080°10'0 0.0
2015-May-01 01:33N 26°06' W 080°10'0 0.0
2015-May-01 00:33N 26°06' W 080°10'0 0.0
2015-Apr-30 23:33N 26°06' W 080°10'0 0.0
2015-Apr-30 22:33N 26°06' W 080°10'0 0.0
2015-Apr-30 21:33N 26°06' W 080°10'0 0.0
2015-Apr-30 20:33N 26°06' W 080°10'0 0.0
2015-Apr-30 19:33N 26°06' W 080°10'0 0.0
2015-Apr-30 18:33N 26°06' W 080°10'0 0.0
2015-Apr-30 17:33N 26°06' W 080°10'0 0.0
2015-Apr-30 16:33N 26°06' W 080°10'0 0.0
2015-Apr-30 15:33N 26°06' W 080°10'0 0.0
2015-Apr-30 14:33N 26°06' W 080°10'0 0.0
2015-Apr-30 13:33N 26°06' W 080°10'0 0.0
2015-Apr-30 12:33N 26°06' W 080°10'0 0.0
2015-Apr-30 11:33N 26°06' W 080°10'0 0.0
2015-Apr-30 10:33N 26°06' W 080°10'0 0.0
2015-Apr-30 09:33N 26°06' W 080°10'0 0.0
2015-Apr-30 08:33N 26°06' W 080°10'0 0.0
2015-Apr-30 07:33N 26°06' W 080°10'0 0.0
2015-Apr-30 06:33N 26°06' W 080°10'0 0.0
2015-Apr-30 05:33N 26°06' W 080°10'0 0.0
2015-Apr-30 04:33N 26°06' W 080°10'0 0.0
2015-Apr-30 03:33N 26°06' W 080°10'0 0.0
2015-Apr-30 02:33N 26°06' W 080°10'0 0.0
2015-Apr-30 01:33N 26°06' W 080°10'0 0.5
2015-Apr-30 00:33N 26°05' W 080°10'0 0.5
2015-Apr-29 23:34N 26°06' W 080°10'0 0.0
2015-Apr-29 22:33N 26°06' W 080°10'0 0.0
2015-Apr-29 21:33N 26°06' W 080°10'0 0.0
2015-Apr-29 20:33N 26°06' W 080°10'0 0.0
2015-Apr-29 19:33N 26°06' W 080°10'0 0.0
2015-Apr-29 18:33N 26°06' W 080°10'0 0.0
2015-Apr-29 17:33N 26°06' W 080°10'0 0.0
2015-Apr-29 16:33N 26°06' W 080°10'0 0.0
2015-Apr-29 15:33N 26°06' W 080°10'0 0.0
2015-Apr-29 14:33N 26°06' W 080°10'0 0.0
2015-Apr-29 13:33N 26°06' W 080°10'0 0.0
2015-Apr-29 12:33N 26°06' W 080°10'0 0.0
2015-Apr-29 11:33N 26°06' W 080°10'0 0.0
2015-Apr-29 10:33N 26°06' W 080°10'0 0.0
2015-Apr-29 09:33N 26°06' W 080°10'0 0.0
2015-Apr-29 08:33N 26°06' W 080°10'0 0.0
2015-Apr-29 07:33N 26°06' W 080°10'0 0.0
2015-Apr-29 06:33N 26°06' W 080°10'0 0.0
2015-Apr-29 05:33N 26°06' W 080°10'0 0.0
2015-Apr-29 04:33N 26°06' W 080°10'0 0.0
2015-Apr-29 03:33N 26°06' W 080°10'0 0.0
2015-Apr-29 02:33N 26°06' W 080°10'0 0.1
2015-Apr-29 01:33N 26°06' W 080°10'0 0.1
2015-Apr-29 00:33N 26°06' W 080°10'0 0.0
2015-Apr-28 23:33N 26°06' W 080°10'0 0.0
2015-Apr-28 22:33N 26°06' W 080°10'  
Track history (hours):
 
Tides and Currents Weather Stations Pressure Air Temp Water Temp Dewpoint Dewpoint Depression Visibility Wind Speed Wind Dir Waves Ship Positions

Kauhale Kai

Last reported at 2015-May-08 22:10 UTC. Time now 2015-Jul-03 12:25 UTC.
Position N 26°14' W 079°40'.
Warning: this ship's position is 55 days out of date.

; draft 2.8 m.

Type: Pleasure craft. MMSI: 538070338.

Date/timePositionNaut miles runAvg speedWind from/ knotsBaromVisibWave heightAir tempDewpointWater temp
2015-May-08 22:10N 26°14' W 079°40'5 8.7
2015-May-08 21:33N 26°12' W 079°46'8 8.4
2015-May-08 20:33N 26°09' W 079°54'8 8.3
2015-May-08 19:33N 26°06' W 080°03'5 4.9
2015-May-08 18:33N 26°07' W 080°08'2 1.9
2015-May-08 17:33N 26°06' W 080°10'0 0.0
2015-May-08 16:33N 26°06' W 080°10'0 0.0
2015-May-08 15:33N 26°06' W 080°10'0 0.0
2015-May-08 14:33N 26°06' W 080°10'0 0.0
2015-May-08 13:33N 26°06' W 080°10'0 0.0
2015-May-08 12:33N 26°06' W 080°10'0 0.0
2015-May-08 11:33N 26°06' W 080°10'0 0.0
2015-May-08 10:33N 26°06' W 080°10'0 0.0
2015-May-08 09:33N 26°06' W 080°10'0 0.0
2015-May-08 08:33N 26°06' W 080°10'0 0.0
2015-May-08 07:33N 26°06' W 080°10'0 0.0
2015-May-08 06:33N 26°06' W 080°10'0 0.0
2015-May-08 05:33N 26°06' W 080°10'0 0.0
2015-May-08 04:33N 26°06' W 080°10'0 0.0
2015-May-08 03:33N 26°06' W 080°10'0 0.0
2015-May-08 02:33N 26°06' W 080°10'0 0.0
2015-May-08 01:33N 26°06' W 080°10'0 0.0
2015-May-08 00:33N 26°06' W 080°10'0 0.0
2015-May-07 23:33N 26°06' W 080°10'0 0.0
2015-May-07 22:33N 26°06' W 080°10'0 0.0
2015-May-07 21:33N 26°06' W 080°10'0 0.0
2015-May-07 20:33N 26°06' W 080°10'0 0.0
2015-May-07 19:33N 26°06' W 080°10'0 0.0
2015-May-07 18:33N 26°06' W 080°10'0 0.0
2015-May-07 17:34N 26°06' W 080°10'0 0.0
2015-May-07 16:33N 26°06' W 080°10'0 0.0
2015-May-07 15:34N 26°06' W 080°10'0 0.0
2015-May-07 14:33N 26°06' W 080°10'0 0.0
2015-May-07 13:34N 26°06' W 080°10'0 0.0
2015-May-07 12:33N 26°06' W 080°10'0 0.0
2015-May-07 11:33N 26°06' W 080°10'0 0.0
2015-May-07 10:33N 26°06' W 080°10'0 0.0
2015-May-07 09:33N 26°06' W 080°10'0 0.0
2015-May-07 08:33N 26°06' W 080°10'0 0.0
2015-May-07 07:33N 26°06' W 080°10'0 0.0
2015-May-07 05:10N 26°06' W 080°10'0 0.0
2015-May-07 04:33N 26°06' W 080°10'0 0.0
2015-May-07 03:33N 26°06' W 080°10'0 0.0
2015-May-07 02:34N 26°06' W 080°10'0 0.0
2015-May-07 01:33N 26°06' W 080°10'0 0.0
2015-May-07 00:33N 26°06' W 080°10'0 0.0
2015-May-06 23:33N 26°06' W 080°10'0 0.0
2015-May-06 22:33N 26°06' W 080°10'0 0.0
2015-May-06 21:33N 26°06' W 080°10'0 0.0
2015-May-06 20:33N 26°06' W 080°10'0 0.0
2015-May-06 19:33N 26°06' W 080°10'0 0.0
2015-May-06 18:33N 26°06' W 080°10'0 0.0
2015-May-06 17:33N 26°06' W 080°10'0 0.0
2015-May-06 16:33N 26°06' W 080°10'0 0.0
2015-May-06 15:33N 26°06' W 080°10'0 0.0
2015-May-06 14:33N 26°06' W 080°10'0 0.0
2015-May-06 13:33N 26°06' W 080°10'0 0.0
2015-May-06 12:33N 26°06' W 080°10'0 0.0
2015-May-06 11:33N 26°06' W 080°10'0 0.0
2015-May-06 10:33N 26°06' W 080°10'0 0.0
2015-May-06 09:33N 26°06' W 080°10'0 0.0
2015-May-06 08:33N 26°06' W 080°10'0 0.0
2015-May-06 07:33N 26°06' W 080°10'0 0.0
2015-May-06 06:33N 26°06' W 080°10'0 0.0
2015-May-06 05:33N 26°06' W 080°10'0 0.0
2015-May-06 04:33N 26°06' W 080°10'0 0.0
2015-May-06 03:33N 26°06' W 080°10'0 0.0
2015-May-06 02:33N 26°06' W 080°10'0 0.0
2015-May-06 01:33N 26°06' W 080°10'0 0.0
2015-May-06 00:33N 26°06' W 080°10'0 0.0
2015-May-05 23:33N 26°06' W 080°10'0 0.0
2015-May-05 22:33N 26°06' W 080°10'0 0.0
2015-May-05 21:33N 26°06' W 080°10'0 0.0
2015-May-05 20:33N 26°06' W 080°10'0 0.0
2015-May-05 19:33N 26°06' W 080°10'0 0.0
2015-May-05 18:33N 26°06' W 080°10'0 0.0
2015-May-05 17:33N 26°06' W 080°10'0 0.0
2015-May-05 16:33N 26°06' W 080°10'0 0.0
2015-May-05 15:33N 26°06' W 080°10'0 0.0
2015-May-05 14:33N 26°06' W 080°10'0 0.0
2015-May-05 13:33N 26°06' W 080°10'0 0.0
2015-May-05 12:33N 26°06' W 080°10'0 0.0
2015-May-05 11:33N 26°06' W 080°10'0 0.0
2015-May-05 10:33N 26°06' W 080°10'0 0.0
2015-May-05 09:33N 26°06' W 080°10'0 0.0
2015-May-05 08:33N 26°06' W 080°10'0 0.0
2015-May-05 07:33N 26°06' W 080°10'0 0.0
2015-May-05 06:33N 26°06' W 080°10'0 0.0
2015-May-05 05:33N 26°06' W 080°10'0 0.0
2015-May-05 04:33N 26°06' W 080°10'0 0.0
2015-May-05 03:33N 26°06' W 080°10'0 0.0
2015-May-05 02:33N 26°06' W 080°10'0 0.0
2015-May-05 01:33N 26°06' W 080°10'0 0.0
2015-May-05 00:33N 26°06' W 080°10'0 0.0
2015-May-04 23:33N 26°06' W 080°10'0 0.0
2015-May-04 22:33N 26°06' W 080°10'0 0.0
2015-May-04 21:33N 26°06' W 080°10'0 0.0
2015-May-04 20:33N 26°06' W 080°10'0 0.0
2015-May-04 19:34N 26°06' W 080°10'0 0.0
2015-May-04 18:34N 26°06' W 080°10'0 0.0
2015-May-04 17:33N 26°06' W 080°10'0 0.0
2015-May-04 16:33N 26°06' W 080°10'0 0.0
2015-May-04 15:33N 26°06' W 080°10'0 0.0
2015-May-04 14:33N 26°06' W 080°10'0 0.0
2015-May-04 13:33N 26°06' W 080°10'0 0.0
2015-May-04 12:33N 26°06' W 080°10'0 0.0
2015-May-04 11:33N 26°06' W 080°10'0 0.0
2015-May-04 10:33N 26°06' W 080°10'0 0.0
2015-May-04 09:33N 26°06' W 080°10'0 0.0
2015-May-04 08:33N 26°06' W 080°10'0 0.0
2015-May-04 07:33N 26°06' W 080°10'0 0.0
2015-May-04 06:33N 26°06' W 080°10'0 0.0
2015-May-04 05:33N 26°06' W 080°10'0 0.0
2015-May-04 04:33N 26°06' W 080°10'0 0.0
2015-May-04 03:33N 26°06' W 080°10'0 0.0
2015-May-04 02:33N 26°06' W 080°10'0 0.0
2015-May-04 01:33N 26°06' W 080°10'0 0.0
2015-May-04 00:33N 26°06' W 080°10'0 0.0
2015-May-03 23:33N 26°06' W 080°10'0 0.0
2015-May-03 22:33N 26°06' W 080°10'0 0.0
2015-May-03 21:33N 26°06' W 080°10'0 0.0
2015-May-03 20:33N 26°06' W 080°10'0 0.0
2015-May-03 19:33N 26°06' W 080°10'0 0.0
2015-May-03 18:33N 26°06' W 080°10'0 0.0
2015-May-03 17:33N 26°06' W 080°10'0 0.0
2015-May-03 16:34N 26°06' W 080°10'0 0.0
2015-May-03 15:33N 26°06' W 080°10'0 0.0
2015-May-03 14:33N 26°06' W 080°10'0 0.0
2015-May-03 13:33N 26°06' W 080°10'0 0.0
2015-May-03 12:33N 26°06' W 080°10'0 0.0
2015-May-03 11:33N 26°06' W 080°10'0 0.0
2015-May-03 10:33N 26°06' W 080°10'0 0.0
2015-May-03 09:33N 26°06' W 080°10'0 0.0
2015-May-03 08:33N 26°06' W 080°10'0 0.0
2015-May-03 07:33N 26°06' W 080°10'0 0.0
2015-May-03 06:33N 26°06' W 080°10'0 0.0
2015-May-03 05:33N 26°06' W 080°10'0 0.0
2015-May-03 04:33N 26°06' W 080°10'0 0.0
2015-May-03 03:33N 26°06' W 080°10'0 0.0
2015-May-03 02:33N 26°06' W 080°10'0 0.0
2015-May-03 01:34N 26°06' W 080°10'0 0.0
2015-May-03 00:32N 26°06' W 080°10'0 0.0
2015-May-02 23:33N 26°06' W 080°10'0 0.0
2015-May-02 22:33N 26°06' W 080°10'0 0.0
2015-May-02 21:33N 26°06' W 080°10'0 0.0
2015-May-02 20:33N 26°06' W 080°10'0 0.0
2015-May-02 19:33N 26°06' W 080°10'0 0.0
2015-May-02 18:33N 26°06' W 080°10'0 0.0
2015-May-02 17:33N 26°06' W 080°10'0 0.0
2015-May-02 16:33N 26°06' W 080°10'0 0.0
2015-May-02 15:33N 26°06' W 080°10'0 0.0
2015-May-02 14:33N 26°06' W 080°10'0 0.0
2015-May-02 13:33N 26°06' W 080°10'0 0.0
2015-May-02 12:33N 26°06' W 080°10'0 0.0
2015-May-02 11:33N 26°06' W 080°10'0 0.0
2015-May-02 10:33N 26°06' W 080°10'0 0.0
2015-May-02 09:33N 26°06' W 080°10'0 0.0
2015-May-02 08:34N 26°06' W 080°10'0 0.0
2015-May-02 07:34N 26°06' W 080°10'0 0.0
2015-May-02 06:33N 26°06' W 080°10'0 0.0
2015-May-02 05:33N 26°06' W 080°10'0 0.0
2015-May-02 04:33N 26°06' W 080°10'0 0.0
2015-May-02 03:33N 26°06' W 080°10'0 0.0
2015-May-02 02:33N 26°06' W 080°10'0 0.0
2015-May-02 01:33N 26°06' W 080°10'0 0.0
2015-May-02 00:33N 26°06' W 080°10'0 0.0
2015-May-01 23:33N 26°06' W 080°10'0 0.0
2015-May-01 22:33N 26°06' W 080°10'0 0.0
2015-May-01 21:33N 26°06' W 080°10'0 0.0
2015-May-01 20:34N 26°06' W 080°10'0 0.0
2015-May-01 19:33N 26°06' W 080°10'0 0.0
2015-May-01 18:33N 26°06' W 080°10'0 0.0
2015-May-01 17:33N 26°06' W 080°10'0 0.0
2015-May-01 16:33N 26°06' W 080°10'0 0.0
2015-May-01 15:33N 26°06' W 080°10'0 0.0
2015-May-01 14:33N 26°06' W 080°10'0 0.0
2015-May-01 13:33N 26°06' W 080°10'0 0.0
2015-May-01 12:33N 26°06' W 080°10'0 0.0
2015-May-01 11:33N 26°06' W 080°10'0 0.0
2015-May-01 10:33N 26°06' W 080°10'0 0.0
2015-May-01 09:33N 26°06' W 080°10'0 0.0
2015-May-01 08:33N 26°06' W 080°10'0 0.0
2015-May-01 07:33N 26°06' W 080°10'0 0.0
2015-May-01 06:33N 26°06' W 080°10'0 0.0
2015-May-01 05:33N 26°06' W 080°10'0 0.0
2015-May-01 04:33N 26°06' W 080°10'0 0.0
2015-May-01 03:33N 26°06' W 080°10'0 0.0
2015-May-01 02:33N 26°06' W 080°10'0 0.0
2015-May-01 01:33N 26°06' W 080°10'0 0.0
2015-May-01 00:33N 26°06' W 080°10'0 0.0
2015-Apr-30 23:33N 26°06' W 080°10'0 0.0
2015-Apr-30 22:33N 26°06' W 080°10'0 0.0
2015-Apr-30 21:33N 26°06' W 080°10'0 0.0
2015-Apr-30 20:33N 26°06' W 080°10'0 0.0
2015-Apr-30 19:33N 26°06' W 080°10'0 0.0
2015-Apr-30 18:33N 26°06' W 080°10'0 0.0
2015-Apr-30 17:33N 26°06' W 080°10'0 0.0
2015-Apr-30 16:33N 26°06' W 080°10'0 0.0
2015-Apr-30 15:33N 26°06' W 080°10'0 0.0
2015-Apr-30 14:33N 26°06' W 080°10'0 0.0
2015-Apr-30 13:33N 26°06' W 080°10'0 0.0
2015-Apr-30 12:33N 26°06' W 080°10'0 0.0
2015-Apr-30 11:33N 26°06' W 080°10'0 0.0
2015-Apr-30 10:33N 26°06' W 080°10'0 0.0
2015-Apr-30 09:33N 26°06' W 080°10'0 0.0
2015-Apr-30 08:33N 26°06' W 080°10'0 0.0
2015-Apr-30 07:33N 26°06' W 080°10'0 0.0
2015-Apr-30 06:33N 26°06' W 080°10'0 0.0
2015-Apr-30 05:33N 26°06' W 080°10'0 0.0
2015-Apr-30 04:33N 26°06' W 080°10'0 0.0
2015-Apr-30 03:33N 26°06' W 080°10'0 0.0
2015-Apr-30 02:33N 26°06' W 080°10'0 0.0
2015-Apr-30 01:33N 26°06' W 080°10'0 0.5
2015-Apr-30 00:33N 26°05' W 080°10'0 0.5
2015-Apr-29 23:34N 26°06' W 080°10'0 0.0
2015-Apr-29 22:33N 26°06' W 080°10'0 0.0
2015-Apr-29 21:33N 26°06' W 080°10'0 0.0
2015-Apr-29 20:33N 26°06' W 080°10'0 0.0
2015-Apr-29 19:33N 26°06' W 080°10'0 0.0
2015-Apr-29 18:33N 26°06' W 080°10'0 0.0
2015-Apr-29 17:33N 26°06' W 080°10'0 0.0
2015-Apr-29 16:33N 26°06' W 080°10'0 0.0
2015-Apr-29 15:33N 26°06' W 080°10'0 0.0
2015-Apr-29 14:33N 26°06' W 080°10'0 0.0
2015-Apr-29 13:33N 26°06' W 080°10'0 0.0
2015-Apr-29 12:33N 26°06' W 080°10'0 0.0
2015-Apr-29 11:33N 26°06' W 080°10'0 0.0
2015-Apr-29 10:33N 26°06' W 080°10'0 0.0
2015-Apr-29 09:33N 26°06' W 080°10'0 0.0
2015-Apr-29 08:33N 26°06' W 080°10'0 0.0
2015-Apr-29 07:33N 26°06' W 080°10'0 0.0
2015-Apr-29 06:33N 26°06' W 080°10'0 0.0
2015-Apr-29 05:33N 26°06' W 080°10'0 0.0
2015-Apr-29 04:33N 26°06' W 080°10'0 0.0
2015-Apr-29 03:33N 26°06' W 080°10'0 0.0
2015-Apr-29 02:33N 26°06' W 080°10'0 0.1
2015-Apr-29 01:33N 26°06' W 080°10'0 0.1
2015-Apr-29 00:33N 26°06' W 080°10'0 0.0
2015-Apr-28 23:33N 26°06' W 080°10'0 0.0
2015-Apr-28 22:33N 26°06' W 080°10'  

Dump ship's entire track history